Time;durP1;ratioP1;P1;durP2;ratioP2;P2;SDS_P1;SDS_P2;PMS_P1;PMS_P2;Temp;Humidity;BMP_temperature;BMP_pressure;BME280_temperature;BME280_humidity;BME280_pressure;Samples;Min_cycle;Max_cycle;Signal;HPM_P1;HPM_P2
2022/08/27 00:00:19;;;;;;;3.70;3.20;;;19.00;99.90;;;;;;5046113;28;20470;-65
2022/08/27 00:02:46;;;;;;;3.87;3.20;;;19.00;99.90;;;;;;5050313;28;20171;-65
2022/08/27 00:05:13;;;;;;;3.33;3.03;;;19.00;99.90;;;;;;5046832;28;20432;-65
2022/08/27 00:07:41;;;;;;;4.87;4.10;;;19.00;99.90;;;;;;5056282;28;20479;-65
2022/08/27 00:10:10;;;;;;;4.00;3.40;;;19.00;99.90;;;;;;5052878;28;20807;-65
2022/08/27 00:12:35;;;;;;;3.77;3.30;;;18.90;99.90;;;;;;5058297;28;20454;-65
2022/08/27 00:15:03;;;;;;;3.17;2.90;;;19.00;99.90;;;;;;5051557;28;20495;-65
2022/08/27 00:17:28;;;;;;;3.97;3.60;;;18.90;99.90;;;;;;5039252;28;20221;-65
2022/08/27 00:19:54;;;;;;;5.43;3.90;;;18.90;99.90;;;;;;5046417;28;20521;-65
2022/08/27 00:22:20;;;;;;;4.40;3.30;;;18.90;99.90;;;;;;5057314;28;20216;-65
2022/08/27 00:24:45;;;;;;;8.23;3.50;;;18.90;99.90;;;;;;5049120;28;20180;-64
2022/08/27 00:27:11;;;;;;;3.87;3.53;;;18.90;99.90;;;;;;5041605;28;20316;-64
2022/08/27 00:29:37;;;;;;;5.40;3.30;;;18.80;99.90;;;;;;5059848;28;20590;-65
2022/08/27 00:32:03;;;;;;;3.57;3.27;;;18.80;99.90;;;;;;5069304;28;20204;-65
2022/08/27 00:34:30;;;;;;;3.70;3.40;;;18.80;99.90;;;;;;5035751;28;20203;-65
2022/08/27 00:36:56;;;;;;;4.17;3.77;;;18.80;99.90;;;;;;5048877;28;20456;-65
2022/08/27 00:39:22;;;;;;;3.23;2.93;;;18.80;99.90;;;;;;5048641;28;20499;-65
2022/08/27 00:41:48;;;;;;;5.10;3.77;;;18.80;99.90;;;;;;5048085;28;20450;-65
2022/08/27 00:44:14;;;;;;;4.20;3.50;;;18.80;99.90;;;;;;5032032;28;20229;-65
2022/08/27 00:46:51;;;;;;;4.97;3.50;;;18.80;99.90;;;;;;5040494;28;20441;-65
2022/08/27 00:49:36;;;;;;;5.07;4.33;;;18.70;99.90;;;;;;5049036;28;20952;-64
2022/08/27 00:52:08;;;;;;;4.43;3.30;;;18.70;99.90;;;;;;5048587;28;20440;-64
2022/08/27 00:54:34;;;;;;;3.43;3.13;;;18.70;99.90;;;;;;5055340;28;20440;-64
2022/08/27 00:57:01;;;;;;;4.97;3.63;;;18.70;99.90;;;;;;5048859;28;20429;-65
2022/08/27 00:59:29;;;;;;;5.50;4.90;;;18.70;99.90;;;;;;5047276;28;20266;-65
2022/08/27 01:04:42;;;;;;;5.60;3.00;;;18.60;99.90;;;;;;5046639;28;20444;-65
2022/08/27 01:07:09;;;;;;;4.83;3.37;;;18.60;99.90;;;;;;5047845;28;20449;-64
2022/08/27 01:09:36;;;;;;;3.53;3.23;;;18.60;99.90;;;;;;5056839;28;20430;-65
2022/08/27 01:12:02;;;;;;;3.80;3.50;;;18.50;99.90;;;;;;5073177;28;20492;-65
2022/08/27 01:14:28;;;;;;;5.53;3.50;;;18.50;99.90;;;;;;5072572;28;20823;-65
2022/08/27 01:16:56;;;;;;;6.00;4.10;;;18.50;99.90;;;;;;5063090;28;20987;-65
2022/08/27 01:19:34;;;;;;;4.40;3.40;;;18.40;99.90;;;;;;5051322;28;20298;-64
2022/08/27 01:22:17;;;;;;;4.10;3.60;;;18.40;99.90;;;;;;5063270;28;20492;-65
2022/08/27 01:24:46;;;;;;;3.27;2.97;;;18.40;99.90;;;;;;5061218;28;20436;-64
2022/08/27 01:27:16;;;;;;;3.30;3.00;;;18.30;99.90;;;;;;5051238;28;20453;-65
2022/08/27 01:29:43;;;;;;;3.53;3.23;;;18.30;99.90;;;;;;5033109;28;20437;-65
2022/08/27 01:32:16;;;;;;;3.40;3.10;;;18.30;99.90;;;;;;5049202;28;20444;-65
2022/08/27 01:34:41;;;;;;;3.50;3.20;;;18.30;99.90;;;;;;5040271;28;20564;-65
2022/08/27 01:37:08;;;;;;;3.70;3.27;;;18.20;99.90;;;;;;5059580;28;20468;-64
2022/08/27 01:39:36;;;;;;;4.40;3.70;;;18.20;99.90;;;;;;5061843;28;20193;-65
2022/08/27 01:42:16;;;;;;;3.60;3.30;;;18.20;99.90;;;;;;5067452;28;20393;-65
2022/08/27 01:44:52;;;;;;;4.70;4.00;;;18.20;99.90;;;;;;5049036;28;20978;-65
2022/08/27 01:47:20;;;;;;;5.20;3.40;;;18.10;99.90;;;;;;5052036;28;20421;-65
2022/08/27 01:49:46;;;;;;;6.63;3.70;;;18.10;99.90;;;;;;5051666;28;20935;-65
2022/08/27 01:52:14;;;;;;;4.10;3.43;;;18.10;99.90;;;;;;5044021;28;20807;-65
2022/08/27 01:54:40;;;;;;;6.40;3.53;;;18.10;99.90;;;;;;5058217;28;20443;-65
2022/08/27 01:57:05;;;;;;;4.50;3.60;;;18.10;99.90;;;;;;5052165;28;20520;-65
2022/08/27 01:59:32;;;;;;;7.30;4.20;;;18.10;99.90;;;;;;5050051;28;20171;-65
2022/08/27 02:02:01;;;;;;;4.73;3.80;;;18.10;99.90;;;;;;5046259;28;20198;-65
2022/08/27 02:04:27;;;;;;;8.17;3.90;;;18.10;99.90;;;;;;5049345;28;20486;-65
2022/08/27 02:06:53;;;;;;;4.23;3.80;;;18.10;99.90;;;;;;5055324;28;20447;-65
2022/08/27 02:09:19;;;;;;;5.10;4.23;;;18.10;99.90;;;;;;5053432;28;20451;-65
2022/08/27 02:11:45;;;;;;;5.57;4.50;;;18.00;99.90;;;;;;5040600;28;20175;-65
2022/08/27 02:14:11;;;;;;;6.30;4.43;;;18.00;99.90;;;;;;5049334;28;20438;-65
2022/08/27 02:16:36;;;;;;;4.83;3.93;;;18.00;99.90;;;;;;5048380;28;20688;-65
2022/08/27 02:19:02;;;;;;;5.67;4.33;;;18.00;99.90;;;;;;5050790;28;20262;-65
2022/08/27 02:21:28;;;;;;;12.47;4.10;;;18.00;99.90;;;;;;5037848;28;20263;-64
2022/08/27 02:23:54;;;;;;;7.07;5.10;;;18.00;99.90;;;;;;5058002;28;20512;-64
2022/08/27 02:26:21;;;;;;;5.50;4.20;;;17.90;99.90;;;;;;5031872;28;20706;-65
2022/08/27 02:28:46;;;;;;;5.43;4.77;;;18.00;99.90;;;;;;5031029;28;20192;-64
2022/08/27 02:31:13;;;;;;;7.80;4.40;;;18.00;99.90;;;;;;5050779;28;20961;-65
2022/08/27 02:33:38;;;;;;;11.00;4.30;;;18.00;99.90;;;;;;5050186;28;20179;-64
2022/08/27 02:36:04;;;;;;;4.50;3.93;;;18.00;99.90;;;;;;5047345;28;20543;-65
2022/08/27 02:38:31;;;;;;;6.40;4.20;;;18.00;99.90;;;;;;5064243;28;20206;-65
2022/08/27 02:40:56;;;;;;;6.40;4.23;;;18.00;99.90;;;;;;5053110;28;20909;-65
2022/08/27 02:43:22;;;;;;;5.63;4.30;;;17.90;99.90;;;;;;5031519;28;20454;-64
2022/08/27 02:45:49;;;;;;;6.50;5.00;;;17.90;99.90;;;;;;5040640;28;20175;-65
2022/08/27 02:48:15;;;;;;;5.00;4.10;;;17.90;99.90;;;;;;5042325;28;20238;-65
2022/08/27 02:50:42;;;;;;;5.80;4.10;;;17.90;99.90;;;;;;5046063;28;20437;-65
2022/08/27 02:53:08;;;;;;;4.20;3.80;;;17.90;99.90;;;;;;5061580;28;20178;-65
2022/08/27 02:55:34;;;;;;;4.50;4.10;;;17.90;99.90;;;;;;5060318;28;20421;-65
2022/08/27 02:58:00;;;;;;;5.30;4.40;;;17.90;99.90;;;;;;5063496;28;20454;-66
2022/08/27 03:00:27;;;;;;;5.93;4.70;;;17.90;99.90;;;;;;5037103;28;20531;-65
2022/08/27 03:02:53;;;;;;;6.33;5.17;;;17.90;99.90;;;;;;5050850;28;20484;-65
2022/08/27 03:05:19;;;;;;;4.90;4.40;;;17.90;99.90;;;;;;5047287;28;20429;-65
2022/08/27 03:07:45;;;;;;;7.50;4.97;;;17.90;99.90;;;;;;5053483;28;20469;-65
2022/08/27 03:10:13;;;;;;;6.30;4.87;;;17.90;99.90;;;;;;5059861;28;20909;-65
2022/08/27 03:12:39;;;;;;;7.20;4.80;;;17.90;99.90;;;;;;5069657;28;20205;-66
2022/08/27 03:15:09;;;;;;;6.63;5.63;;;17.90;99.90;;;;;;5068740;28;20512;-65
2022/08/27 03:20:20;;;;;;;4.30;3.90;;;17.90;99.90;;;;;;5037484;28;20456;-65
2022/08/27 03:22:46;;;;;;;5.60;3.80;;;17.90;99.90;;;;;;5057170;28;20426;-65
2022/08/27 03:25:12;;;;;;;5.60;4.50;;;17.80;99.90;;;;;;5050573;28;20969;-65
2022/08/27 03:27:37;;;;;;;7.00;4.20;;;17.80;99.90;;;;;;5030009;28;20430;-66
2022/08/27 03:30:06;;;;;;;5.03;4.53;;;17.80;99.90;;;;;;5044813;28;21003;-65
2022/08/27 03:32:33;;;;;;;10.13;4.03;;;17.80;99.90;;;;;;5038494;28;20183;-65
2022/08/27 03:34:59;;;;;;;6.10;4.83;;;17.80;99.90;;;;;;5038013;28;20435;-65
2022/08/27 03:37:25;;;;;;;6.10;4.97;;;17.80;99.90;;;;;;5042381;28;20829;-65
2022/08/27 03:39:51;;;;;;;4.33;3.93;;;17.70;99.90;;;;;;5058616;28;20777;-65
2022/08/27 03:42:16;;;;;;;5.37;4.70;;;17.70;99.90;;;;;;5048122;28;20413;-65
2022/08/27 03:44:42;;;;;;;6.63;5.10;;;17.70;99.90;;;;;;5037556;28;20671;-65
2022/08/27 03:47:08;;;;;;;5.80;4.77;;;17.70;99.90;;;;;;5032399;28;20195;-65
2022/08/27 03:49:33;;;;;;;6.77;5.47;;;17.70;99.90;;;;;;5047887;28;20234;-65
2022/08/27 03:51:59;;;;;;;7.17;5.17;;;17.70;99.90;;;;;;5047149;28;20186;-65
2022/08/27 03:54:25;;;;;;;9.43;5.10;;;17.70;99.90;;;;;;5047986;28;20197;-64
2022/08/27 03:56:50;;;;;;;6.47;4.83;;;17.70;99.90;;;;;;5047288;28;20198;-64
2022/08/27 03:59:16;;;;;;;5.80;5.00;;;17.70;99.90;;;;;;5049627;28;20299;-64
2022/08/27 04:01:44;;;;;;;5.17;4.67;;;17.70;99.90;;;;;;5047440;28;20185;-65
2022/08/27 04:04:09;;;;;;;6.00;4.63;;;17.60;99.90;;;;;;5052337;28;20179;-65
2022/08/27 04:06:35;;;;;;;6.43;4.57;;;17.70;99.90;;;;;;5044548;28;21060;-65
2022/08/27 04:09:01;;;;;;;5.97;4.70;;;17.70;99.90;;;;;;5047469;28;20546;-64
2022/08/27 04:11:28;;;;;;;6.93;4.97;;;17.60;99.90;;;;;;5057346;28;20186;-65
2022/08/27 04:13:54;;;;;;;5.03;4.53;;;17.60;99.90;;;;;;5040172;28;20776;-63
2022/08/27 04:16:20;;;;;;;5.30;4.70;;;17.60;99.90;;;;;;5043912;28;20975;-64
2022/08/27 04:18:46;;;;;;;5.53;4.90;;;17.60;99.90;;;;;;5048441;28;20461;-65
2022/08/27 04:21:14;;;;;;;6.40;4.53;;;17.60;99.90;;;;;;5045109;28;20640;-64
2022/08/27 04:23:41;;;;;;;5.40;4.90;;;17.60;99.90;;;;;;5051231;28;20174;-65
2022/08/27 04:26:08;;;;;;;7.00;4.77;;;17.50;99.90;;;;;;5031002;28;20511;-65
2022/08/27 04:28:34;;;;;;;7.87;5.40;;;17.50;99.90;;;;;;5029151;28;20406;-65
2022/08/27 04:31:01;;;;;;;5.40;4.90;;;17.50;99.90;;;;;;5027987;28;20506;-65
2022/08/27 04:33:27;;;;;;;6.97;5.57;;;17.60;99.90;;;;;;5047495;28;20174;-65
2022/08/27 04:36:04;;;;;;;6.57;5.77;;;17.60;99.90;;;;;;5045428;28;20938;-64
2022/08/27 04:38:30;;;;;;;6.20;5.17;;;17.60;99.90;;;;;;5058746;28;20201;-65
2022/08/27 04:43:40;;;;;;;7.37;5.20;;;17.50;99.90;;;;;;5030588;28;20210;-65
2022/08/27 04:46:05;;;;;;;6.20;4.70;;;17.60;99.90;;;;;;5047732;28;20518;-65
2022/08/27 04:48:31;;;;;;;5.60;4.50;;;17.50;99.90;;;;;;5051680;28;20175;-65
2022/08/27 04:50:57;;;;;;;5.70;4.50;;;17.50;99.90;;;;;;5056437;28;20663;-65
2022/08/27 04:53:23;;;;;;;5.10;4.60;;;17.50;99.90;;;;;;5060614;28;20456;-65
2022/08/27 04:55:55;;;;;;;6.77;4.80;;;17.50;99.90;;;;;;5062203;28;20178;-65
2022/08/27 04:58:22;;;;;;;6.00;5.40;;;17.50;99.90;;;;;;5055607;28;20643;-65
2022/08/27 05:00:54;;;;;;;6.73;4.87;;;17.50;99.90;;;;;;5036906;28;20973;-65
2022/08/27 05:03:22;;;;;;;6.47;5.60;;;17.50;99.90;;;;;;5052507;28;20518;-64
2022/08/27 05:05:49;;;;;;;7.33;5.83;;;17.50;99.90;;;;;;5050554;28;20483;-65
2022/08/27 05:08:16;;;;;;;8.13;6.60;;;17.50;99.90;;;;;;5054415;28;20947;-65
2022/08/27 05:10:47;;;;;;;7.67;5.93;;;17.50;99.90;;;;;;5030687;28;20488;-64
2022/08/27 05:13:14;;;;;;;6.57;5.80;;;17.50;99.90;;;;;;5031246;28;20414;-65
2022/08/27 05:15:40;;;;;;;7.63;6.00;;;17.60;99.90;;;;;;5032498;28;20428;-65
2022/08/27 05:18:07;;;;;;;8.13;5.70;;;17.50;99.90;;;;;;5031764;28;20531;-64
2022/08/27 05:20:39;;;;;;;10.40;6.77;;;17.60;99.90;;;;;;5039382;28;20486;-65
2022/08/27 05:23:05;;;;;;;7.70;6.33;;;17.60;99.90;;;;;;5059650;28;20895;-65
2022/08/27 05:25:31;;;;;;;8.87;7.00;;;17.60;99.90;;;;;;5053430;28;20465;-65
2022/08/27 05:27:56;;;;;;;7.80;6.93;;;17.60;99.90;;;;;;5032339;28;20191;-65
2022/08/27 05:30:22;;;;;;;8.30;6.80;;;17.60;99.90;;;;;;5032000;28;20664;-65
2022/08/27 05:32:48;;;;;;;9.83;6.70;;;17.60;99.90;;;;;;5042369;28;20187;-65
2022/08/27 05:35:14;;;;;;;9.90;6.60;;;17.60;99.90;;;;;;5048410;28;20202;-65
2022/08/27 05:37:39;;;;;;;8.70;6.10;;;17.70;99.90;;;;;;5052703;28;20217;-64
2022/08/27 05:40:05;;;;;;;7.80;5.80;;;17.70;99.90;;;;;;5057972;28;20167;-65
2022/08/27 05:42:32;;;;;;;6.80;5.97;;;17.70;99.90;;;;;;5050873;28;20206;-64
2022/08/27 05:44:57;;;;;;;8.90;6.50;;;17.70;99.90;;;;;;5041175;28;20507;-64
2022/08/27 05:47:23;;;;;;;10.50;6.70;;;17.70;99.90;;;;;;5031844;28;20418;-65
2022/08/27 05:49:53;;;;;;;7.70;6.67;;;17.80;99.90;;;;;;5033291;28;20644;-65
2022/08/27 05:52:20;;;;;;;6.80;6.10;;;17.80;99.90;;;;;;5058511;28;20265;-65
2022/08/27 05:54:46;;;;;;;10.90;6.70;;;17.80;99.90;;;;;;5048144;28;21038;-65
2022/08/27 05:57:11;;;;;;;8.07;6.37;;;17.80;99.90;;;;;;5051429;28;20425;-65
2022/08/27 06:02:22;;;;;;;8.60;7.67;;;17.90;99.90;;;;;;5048114;28;20192;-65
2022/08/27 06:04:47;;;;;;;10.60;7.17;;;17.90;99.90;;;;;;5041360;28;20954;-65
2022/08/27 06:07:13;;;;;;;9.23;7.40;;;17.90;99.90;;;;;;5043098;28;20448;-65
2022/08/27 06:09:40;;;;;;;9.50;7.30;;;17.90;99.90;;;;;;5060295;28;20605;-65
2022/08/27 06:12:07;;;;;;;8.77;7.03;;;17.90;99.90;;;;;;5051591;28;20513;-65
2022/08/27 06:14:34;;;;;;;10.47;7.63;;;18.00;99.90;;;;;;5045879;28;20407;-65
2022/08/27 06:17:00;;;;;;;10.33;8.03;;;18.00;99.90;;;;;;5029484;28;20470;-65
2022/08/27 06:19:26;;;;;;;9.90;7.97;;;18.10;99.90;;;;;;5031142;28;20497;-65
2022/08/27 06:21:52;;;;;;;12.17;8.23;;;18.10;99.90;;;;;;5050397;28;20198;-65
2022/08/27 06:24:18;;;;;;;10.80;8.20;;;18.20;99.90;;;;;;5053884;28;20181;-65
2022/08/27 06:26:44;;;;;;;9.40;8.40;;;18.20;99.90;;;;;;5046645;28;20454;-65
2022/08/27 06:29:11;;;;;;;10.63;8.57;;;18.20;99.90;;;;;;5031345;28;20184;-65
2022/08/27 06:31:38;;;;;;;10.00;8.10;;;18.30;99.90;;;;;;5033365;28;20402;-65
2022/08/27 06:34:06;;;;;;;9.00;7.83;;;18.30;99.90;;;;;;5036463;28;20426;-65
2022/08/27 06:36:33;;;;;;;10.17;8.70;;;18.30;99.90;;;;;;5041534;28;20503;-65
2022/08/27 06:38:58;;;;;;;10.70;8.80;;;18.40;99.90;;;;;;5059067;28;20454;-65
2022/08/27 06:41:27;;;;;;;10.73;8.77;;;18.40;99.90;;;;;;5033461;28;20434;-65
2022/08/27 06:43:54;;;;;;;10.70;8.30;;;18.40;99.90;;;;;;5030098;28;20673;-64
2022/08/27 06:46:22;;;;;;;11.57;8.57;;;18.50;99.90;;;;;;5044023;28;20948;-65
2022/08/27 06:48:52;;;;;;;10.87;8.87;;;18.50;99.90;;;;;;5047332;28;20885;-65
2022/08/27 06:51:23;;;;;;;11.03;8.33;;;18.50;99.90;;;;;;5054954;28;20976;-65
2022/08/27 06:53:49;;;;;;;14.40;10.70;;;18.50;99.90;;;;;;5058080;28;21126;-65
2022/08/27 06:56:16;;;;;;;13.83;10.23;;;18.60;99.90;;;;;;5056793;28;20483;-65
2022/08/27 06:58:42;;;;;;;18.90;12.20;;;18.60;99.90;;;;;;5040381;28;20457;-65
2022/08/27 07:01:21;;;;;;;19.77;12.47;;;18.60;99.90;;;;;;5050355;28;20631;-66
2022/08/27 07:03:47;;;;;;;18.63;13.80;;;18.70;99.90;;;;;;5050602;28;20397;-64
2022/08/27 07:06:14;;;;;;;21.17;15.10;;;18.70;99.90;;;;;;5046527;28;20503;-65
2022/08/27 07:08:40;;;;;;;20.77;14.43;;;18.70;99.90;;;;;;5040198;28;20459;-65
2022/08/27 07:11:08;;;;;;;24.43;16.20;;;18.80;99.90;;;;;;5055809;28;20429;-65
2022/08/27 07:13:34;;;;;;;29.80;16.73;;;18.90;99.90;;;;;;5044292;28;20453;-65
2022/08/27 07:16:09;;;;;;;26.03;16.87;;;18.90;99.90;;;;;;5050288;28;20433;-65
2022/08/27 07:18:35;;;;;;;22.83;16.93;;;19.00;99.90;;;;;;5058499;28;20464;-65
2022/08/27 07:21:02;;;;;;;20.60;14.97;;;19.00;99.90;;;;;;5048215;28;21460;-65
2022/08/27 07:23:29;;;;;;;25.10;16.67;;;19.10;99.90;;;;;;5058437;28;20397;-65
2022/08/27 07:25:55;;;;;;;24.63;15.73;;;19.10;99.90;;;;;;5044771;28;20426;-65
2022/08/27 07:28:21;;;;;;;21.53;15.47;;;19.10;99.90;;;;;;5053013;28;20443;-65
2022/08/27 07:30:46;;;;;;;22.23;14.37;;;19.10;99.90;;;;;;5054962;28;20180;-65
2022/08/27 07:33:12;;;;;;;20.40;13.73;;;19.10;99.90;;;;;;5042060;28;20417;-65
2022/08/27 07:35:38;;;;;;;21.03;14.87;;;19.10;99.90;;;;;;5044154;28;20775;-66
2022/08/27 07:38:03;;;;;;;22.73;15.00;;;19.00;99.90;;;;;;5054433;28;20201;-65
2022/08/27 07:40:29;;;;;;;18.97;13.87;;;19.00;99.90;;;;;;5052238;28;20765;-65
2022/08/27 07:45:47;;;;;;;27.73;16.53;;;18.90;99.90;;;;;;5040856;28;20245;-66
2022/08/27 07:48:15;;;;;;;32.53;17.23;;;18.90;99.90;;;;;;5046649;28;21040;-65
2022/08/27 07:50:42;;;;;;;19.27;14.70;;;18.90;99.90;;;;;;5038680;28;20458;-65
2022/08/27 07:53:07;;;;;;;19.87;14.80;;;19.00;99.90;;;;;;5055109;28;20429;-65
2022/08/27 07:55:37;;;;;;;29.60;15.80;;;19.00;99.90;;;;;;5066064;28;20420;-65
2022/08/27 07:58:04;;;;;;;22.63;15.43;;;19.00;99.90;;;;;;5068834;28;20336;-65
2022/08/27 08:00:30;;;;;;;24.10;17.00;;;19.10;99.90;;;;;;5047016;28;20409;-66
2022/08/27 08:02:56;;;;;;;23.77;16.90;;;19.10;99.90;;;;;;5047409;28;20425;-65
2022/08/27 08:05:22;;;;;;;24.00;15.60;;;19.20;99.90;;;;;;5043887;28;20322;-65
2022/08/27 08:07:49;;;;;;;26.80;16.77;;;19.30;99.90;;;;;;5050219;28;20452;-66
2022/08/27 08:10:15;;;;;;;23.67;15.53;;;19.40;99.90;;;;;;5058156;28;20175;-65
2022/08/27 08:12:40;;;;;;;24.63;16.90;;;19.50;99.90;;;;;;5048435;28;20423;-65
2022/08/27 08:15:10;;;;;;;27.30;14.53;;;19.50;99.90;;;;;;5047368;28;20655;-65
2022/08/27 08:17:37;;;;;;;26.30;15.63;;;19.60;99.90;;;;;;5042343;28;20294;-65
2022/08/27 08:20:05;;;;;;;22.77;14.63;;;19.70;99.90;;;;;;5045160;28;20453;-65
2022/08/27 08:22:30;;;;;;;23.83;15.30;;;19.80;99.90;;;;;;5042872;28;20433;-65
2022/08/27 08:24:56;;;;;;;19.50;14.83;;;19.90;99.90;;;;;;5047949;28;20414;-65
2022/08/27 08:27:22;;;;;;;21.97;14.47;;;19.90;99.90;;;;;;5028296;28;20241;-66
2022/08/27 08:29:48;;;;;;;27.50;17.23;;;19.90;99.90;;;;;;5029448;28;20445;-66
2022/08/27 08:32:14;;;;;;;20.33;15.73;;;19.80;99.90;;;;;;5049140;28;20198;-63
2022/08/27 08:34:40;;;;;;;23.97;16.07;;;19.80;99.90;;;;;;5053381;28;20603;-66
2022/08/27 08:37:07;;;;;;;19.90;14.90;;;19.70;99.90;;;;;;5058582;28;20950;-65
2022/08/27 08:39:34;;;;;;;23.33;16.50;;;19.70;99.90;;;;;;5041794;28;20234;-65
2022/08/27 08:42:03;;;;;;;21.37;15.60;;;19.70;99.90;;;;;;5044055;28;20461;-65
2022/08/27 08:44:44;;;;;;;24.57;15.03;;;19.60;99.90;;;;;;5045081;28;20457;-65
2022/08/27 08:47:22;;;;;;;30.67;18.10;;;19.60;99.90;;;;;;5044768;28;20453;-65
2022/08/27 08:49:56;;;;;;;29.60;16.37;;;19.60;99.90;;;;;;5053366;28;20432;-65
2022/08/27 08:52:34;;;;;;;21.53;16.17;;;19.60;99.90;;;;;;5047961;28;20433;-65
2022/08/27 08:55:17;;;;;;;23.80;16.37;;;19.60;99.90;;;;;;5049256;28;21013;-65
2022/08/27 08:57:50;;;;;;;24.90;16.90;;;19.60;99.90;;;;;;5053070;28;21061;-65
2022/08/27 09:00:16;;;;;;;22.27;16.37;;;19.60;99.90;;;;;;5048056;28;20438;-65
2022/08/27 09:02:53;;;;;;;26.03;16.27;;;19.60;99.90;;;;;;5028704;28;20407;-65
2022/08/27 09:05:19;;;;;;;22.00;15.30;;;19.70;99.90;;;;;;5028960;28;20182;-65
2022/08/27 09:08:04;;;;;;;23.90;16.17;;;19.70;99.90;;;;;;5050219;28;20544;-65
2022/08/27 09:10:33;;;;;;;27.07;16.37;;;19.80;99.90;;;;;;5058206;28;20447;-65
2022/08/27 09:13:02;;;;;;;20.60;15.43;;;19.90;99.90;;;;;;5058246;28;20950;-65
2022/08/27 09:15:32;;;;;;;22.80;16.20;;;20.00;99.90;;;;;;5044366;28;20806;-65
2022/08/27 09:18:10;;;;;;;23.93;15.77;;;20.10;99.90;;;;;;5041532;28;20448;-65
2022/08/27 09:20:36;;;;;;;22.10;14.73;;;20.20;99.90;;;;;;5055950;28;20421;-65
2022/08/27 09:23:17;;;;;;;21.20;15.10;;;20.30;99.90;;;;;;5053062;28;20491;-65
2022/08/27 09:25:43;;;;;;;28.87;16.10;;;20.50;99.90;;;;;;5039826;28;20437;-65
2022/08/27 09:31:23;;;;;;;17.77;13.90;;;20.60;99.90;;;;;;5050838;28;20411;-65
2022/08/27 09:33:49;;;;;;;18.93;13.70;;;20.60;99.90;;;;;;5045766;28;20432;-65
2022/08/27 09:36:16;;;;;;;17.83;12.63;;;20.60;99.90;;;;;;5057756;28;20556;-65
2022/08/27 09:38:56;;;;;;;18.07;12.80;;;20.60;99.90;;;;;;5059378;28;20227;-65
2022/08/27 09:41:27;;;;;;;24.83;14.13;;;20.60;99.90;;;;;;5057255;28;20434;-65
2022/08/27 09:44:09;;;;;;;18.83;12.93;;;20.50;99.90;;;;;;5031439;28;20445;-64
2022/08/27 09:46:34;;;;;;;18.37;11.20;;;20.60;99.90;;;;;;5046979;28;20526;-66
2022/08/27 09:49:15;;;;;;;14.80;11.90;;;20.50;99.90;;;;;;5040493;28;20973;-66
2022/08/27 09:51:43;;;;;;;18.80;12.90;;;20.50;99.90;;;;;;5052943;28;20258;-66
2022/08/27 09:54:10;;;;;;;20.90;14.20;;;20.50;99.90;;;;;;5041274;28;20434;-66
2022/08/27 09:56:49;;;;;;;18.73;14.00;;;20.50;99.90;;;;;;5057783;28;20494;-65
2022/08/27 09:59:34;;;;;;;20.70;14.53;;;20.50;99.90;;;;;;5066083;28;20585;-65
2022/08/27 10:02:13;;;;;;;21.23;14.43;;;20.50;99.90;;;;;;5059743;28;20420;-64
2022/08/27 10:04:46;;;;;;;17.23;13.27;;;20.50;99.90;;;;;;5039368;28;20553;-64
2022/08/27 10:07:52;;;;;;;18.67;13.43;;;20.50;99.90;;;;;;5039778;28;20853;-64
2022/08/27 10:10:32;;;;;;;21.60;12.83;;;20.60;99.90;;;;;;5054322;28;20436;-64
2022/08/27 10:13:05;;;;;;;20.53;13.10;;;20.60;99.90;;;;;;5031166;28;20410;-64
2022/08/27 10:15:50;;;;;;;20.77;15.10;;;20.60;99.90;;;;;;5050986;28;20868;-64
2022/08/27 10:18:30;;;;;;;21.03;14.30;;;20.60;99.90;;;;;;5047794;28;20470;-64
2022/08/27 10:21:02;;;;;;;19.30;13.70;;;20.60;99.90;;;;;;5048187;28;20422;-63
2022/08/27 10:23:39;;;;;;;20.30;14.97;;;20.70;99.90;;;;;;5047599;28;20425;-64
2022/08/27 10:26:23;;;;;;;21.87;16.20;;;20.70;99.90;;;;;;5056747;28;20436;-64
2022/08/27 10:29:12;;;;;;;26.83;14.40;;;20.70;99.90;;;;;;5052715;28;20977;-64
2022/08/27 10:32:24;;;;;;;20.33;14.17;;;20.70;99.90;;;;;;5043776;28;20812;-64
2022/08/27 10:35:18;;;;;;;19.30;14.43;;;20.80;99.90;;;;;;5049688;28;20424;-64
2022/08/27 10:38:11;;;;;;;22.30;15.50;;;20.80;99.90;;;;;;5048736;28;20473;-64
2022/08/27 10:41:00;;;;;;;26.33;16.47;;;20.90;99.90;;;;;;5059540;28;20406;-64
2022/08/27 10:43:43;;;;;;;22.60;15.60;;;20.90;99.90;;;;;;5048608;28;20450;-64
2022/08/27 10:46:41;;;;;;;25.30;15.77;;;20.90;99.90;;;;;;5045680;28;20457;-64
2022/08/27 10:49:31;;;;;;;18.50;14.03;;;20.90;99.90;;;;;;5042410;28;20439;-64
2022/08/27 10:52:08;;;;;;;21.10;14.80;;;21.00;99.90;;;;;;5037725;28;20445;-64
2022/08/27 10:54:52;;;;;;;18.27;14.70;;;21.00;99.90;;;;;;5043992;28;21026;-64
2022/08/27 10:57:56;;;;;;;20.70;13.67;;;21.10;99.90;;;;;;5061838;28;20435;-64
2022/08/27 11:00:24;;;;;;;21.40;13.17;;;21.20;99.90;;;;;;5029688;28;20529;-64
2022/08/27 11:02:55;;;;;;;17.93;12.83;;;21.30;99.90;;;;;;5030692;28;20437;-64
2022/08/27 11:05:27;;;;;;;15.57;12.40;;;21.40;99.90;;;;;;5037895;28;21101;-64
2022/08/27 11:08:00;;;;;;;18.83;12.90;;;21.60;99.90;;;;;;5046775;28;20950;-63
2022/08/27 11:10:31;;;;;;;16.23;12.10;;;21.70;99.90;;;;;;5053740;28;20426;-65
2022/08/27 11:13:04;;;;;;;16.20;12.80;;;21.70;99.90;;;;;;5061195;28;20403;-63
2022/08/27 11:15:36;;;;;;;22.13;12.70;;;21.90;99.90;;;;;;5056508;28;20426;-65
2022/08/27 11:18:13;;;;;;;17.17;12.67;;;22.00;99.90;;;;;;5030199;28;20846;-64
2022/08/27 11:20:52;;;;;;;17.40;12.33;;;22.10;99.90;;;;;;5038400;28;20513;-64
2022/08/27 11:23:24;;;;;;;15.20;11.40;;;22.20;99.90;;;;;;5047973;28;20429;-63
2022/08/27 11:25:55;;;;;;;17.30;12.47;;;22.40;99.90;;;;;;5038928;28;20441;-64
2022/08/27 11:28:36;;;;;;;16.37;12.57;;;22.50;99.90;;;;;;5049519;28;20463;-64
2022/08/27 11:31:27;;;;;;;15.20;12.07;;;22.60;99.90;;;;;;5042478;28;20786;-64
2022/08/27 11:34:07;;;;;;;18.13;11.40;;;22.60;99.90;;;;;;5043257;28;20843;-63
2022/08/27 11:36:33;;;;;;;14.93;11.03;;;22.60;99.60;;;;;;5043809;28;21019;-65
2022/08/27 11:39:09;;;;;;;15.57;10.07;;;22.70;99.90;;;;;;5056991;28;20453;-64
2022/08/27 11:41:59;;;;;;;13.67;10.80;;;22.90;99.90;;;;;;5047126;28;20167;-64
2022/08/27 11:44:25;;;;;;;14.73;10.97;;;23.10;98.60;;;;;;5029418;28;20449;-64
2022/08/27 11:47:18;;;;;;;16.07;12.27;;;23.20;95.30;;;;;;5030317;28;20434;-64
2022/08/27 11:50:07;;;;;;;14.93;10.97;;;23.40;94.70;;;;;;5030612;28;20441;-64
2022/08/27 11:52:52;;;;;;;20.13;12.17;;;23.60;93.40;;;;;;5037962;28;21090;-65
2022/08/27 11:55:21;;;;;;;12.13;10.17;;;23.80;90.80;;;;;;5059743;28;20400;-64
2022/08/27 11:57:49;;;;;;;14.77;10.97;;;23.70;92.10;;;;;;5068839;28;20452;-64
2022/08/27 12:00:24;;;;;;;21.93;11.07;;;23.50;91.20;;;;;;5058307;28;20450;-64
2022/08/27 12:03:20;;;;;;;16.70;10.50;;;23.20;94.20;;;;;;5035300;28;20417;-64
2022/08/27 12:05:53;;;;;;;12.60;11.00;;;22.90;96.20;;;;;;5035672;28;20421;-64
2022/08/27 12:08:21;;;;;;;14.33;11.00;;;22.60;98.60;;;;;;5049497;28;20457;-64
2022/08/27 12:10:59;;;;;;;12.60;10.80;;;22.40;99.90;;;;;;5059908;28;20829;-64
2022/08/27 12:13:33;;;;;;;14.17;10.77;;;22.20;99.90;;;;;;5068866;28;20913;-64
2022/08/27 12:16:15;;;;;;;14.53;11.20;;;22.10;99.90;;;;;;5068243;28;20411;-64
2022/08/27 12:19:06;;;;;;;11.80;9.77;;;22.00;99.90;;;;;;5036202;28;20504;-64
2022/08/27 12:21:38;;;;;;;14.90;8.97;;;21.90;99.90;;;;;;5037090;28;20429;-64
2022/08/27 12:24:17;;;;;;;13.60;10.70;;;21.70;99.90;;;;;;5054193;28;20420;-65
2022/08/27 12:27:13;;;;;;;13.70;10.57;;;21.50;99.90;;;;;;5039366;28;20806;-64
2022/08/27 12:30:01;;;;;;;14.50;10.93;;;21.40;99.90;;;;;;5047652;28;20511;-65
2022/08/27 12:32:40;;;;;;;12.37;9.80;;;21.20;99.90;;;;;;5049418;28;20456;-64
2022/08/27 12:35:15;;;;;;;11.10;8.90;;;21.10;99.90;;;;;;5038906;28;20521;-64
2022/08/27 12:38:12;;;;;;;11.50;9.40;;;21.00;99.90;;;;;;5049713;28;20574;-64
2022/08/27 12:40:45;;;;;;;11.13;9.40;;;20.90;99.90;;;;;;5058073;28;20504;-64
2022/08/27 12:43:25;;;;;;;11.60;9.43;;;20.90;99.90;;;;;;5037509;28;20557;-64
2022/08/27 12:45:52;;;;;;;12.83;10.27;;;20.90;99.90;;;;;;5027647;28;20398;-64
2022/08/27 12:48:24;;;;;;;15.20;11.63;;;20.90;99.90;;;;;;5029073;28;20494;-64
2022/08/27 12:50:56;;;;;;;19.07;12.57;;;20.80;99.90;;;;;;5036925;28;20425;-64
2022/08/27 12:53:42;;;;;;;14.00;11.20;;;20.70;99.90;;;;;;5032468;28;20559;-64
2022/08/27 12:56:35;;;;;;;23.00;12.07;;;20.70;99.90;;;;;;5059249;28;20485;-65
2022/08/27 12:59:15;;;;;;;15.87;12.17;;;20.50;99.90;;;;;;5039649;28;20547;-65
2022/08/27 13:02:06;;;;;;;15.27;11.63;;;20.50;99.90;;;;;;5032863;28;20430;-65
2022/08/27 13:04:32;;;;;;;17.93;12.10;;;20.30;99.90;;;;;;5044648;28;20421;-65
2022/08/27 13:06:59;;;;;;;22.50;11.77;;;20.20;99.90;;;;;;5050488;28;20449;-65
2022/08/27 13:09:27;;;;;;;21.40;12.80;;;20.10;99.90;;;;;;5060326;28;20435;-65
2022/08/27 13:11:55;;;;;;;20.07;13.30;;;20.00;99.90;;;;;;5033421;28;20446;-65